Time;durP1;ratioP1;P1;durP2;ratioP2;P2;SDS_P1;SDS_P2;PMS_P1;PMS_P2;Temp;Humidity;BMP_temperature;BMP_pressure;BME280_temperature;BME280_humidity;BME280_pressure;Samples;Min_cycle;Max_cycle;Signal;HPM_P1;HPM_P2
2022/12/02 00:02:19;;;;;;;55.23;34.43;;;4.70;99.90;;;;;;5052594;28;20460;-68
2022/12/02 00:04:54;;;;;;;51.30;31.47;;;4.70;99.90;;;;;;5059489;28;20509;-68
2022/12/02 00:07:22;;;;;;;58.83;35.37;;;4.60;99.90;;;;;;5043667;28;20462;-68
2022/12/02 00:09:49;;;;;;;55.73;33.67;;;4.50;99.90;;;;;;5041928;28;20463;-68
2022/12/02 00:12:21;;;;;;;61.73;34.13;;;4.60;99.90;;;;;;5028919;28;20461;-68
2022/12/02 00:14:53;;;;;;;56.40;33.80;;;4.70;99.90;;;;;;5045567;28;20472;-68
2022/12/02 00:17:19;;;;;;;62.33;34.70;;;4.70;99.90;;;;;;5043595;28;20493;-68
2022/12/02 00:19:48;;;;;;;63.17;38.13;;;4.70;99.90;;;;;;5051231;28;20465;-68
2022/12/02 00:22:15;;;;;;;60.73;34.23;;;4.70;99.90;;;;;;5037738;28;20468;-67
2022/12/02 00:24:42;;;;;;;54.40;36.50;;;4.60;99.90;;;;;;5043326;28;20461;-69
2022/12/02 00:27:08;;;;;;;57.67;35.80;;;4.60;99.90;;;;;;5031299;28;20992;-68
2022/12/02 00:29:35;;;;;;;59.20;34.87;;;4.50;99.90;;;;;;5041083;28;20461;-68
2022/12/02 00:32:02;;;;;;;65.37;35.47;;;4.50;99.90;;;;;;5049663;28;20475;-68
2022/12/02 00:34:29;;;;;;;55.13;34.93;;;4.40;99.90;;;;;;5046538;28;20472;-68
2022/12/02 00:36:57;;;;;;;62.80;38.30;;;4.40;99.90;;;;;;5040935;28;20518;-68
2022/12/02 00:39:25;;;;;;;62.30;34.07;;;4.50;99.90;;;;;;5036852;28;20453;-68
2022/12/02 00:41:52;;;;;;;65.07;37.63;;;4.60;99.90;;;;;;5035711;28;20492;-68
2022/12/02 00:47:04;;;;;;;62.57;36.53;;;4.60;99.90;;;;;;5041504;28;20456;-68
2022/12/02 00:49:31;;;;;;;68.50;38.03;;;4.50;99.90;;;;;;5039009;28;20507;-68
2022/12/02 00:52:00;;;;;;;67.80;38.10;;;4.50;99.90;;;;;;5036761;28;20464;-68
2022/12/02 00:54:26;;;;;;;66.93;36.50;;;4.50;99.90;;;;;;5039165;28;20470;-68
2022/12/02 00:56:53;;;;;;;63.43;38.47;;;4.50;99.90;;;;;;5037493;28;20532;-68
2022/12/02 00:59:21;;;;;;;68.73;36.27;;;4.50;99.90;;;;;;5033061;28;20477;-68
2022/12/02 01:01:48;;;;;;;67.20;36.77;;;4.50;99.90;;;;;;5035895;28;20928;-68
2022/12/02 01:04:15;;;;;;;69.27;38.30;;;4.60;99.90;;;;;;5038182;28;20474;-68
2022/12/02 01:06:42;;;;;;;70.20;38.13;;;4.50;99.90;;;;;;5057302;28;20476;-68
2022/12/02 01:09:10;;;;;;;72.93;35.97;;;4.70;99.90;;;;;;5054873;28;20724;-68
2022/12/02 01:11:38;;;;;;;65.70;36.20;;;4.60;99.90;;;;;;5054246;28;20466;-68
2022/12/02 01:14:06;;;;;;;70.80;37.97;;;4.50;99.90;;;;;;5058465;28;20461;-69
2022/12/02 01:16:32;;;;;;;55.47;34.93;;;4.60;99.90;;;;;;5054905;28;20494;-68
2022/12/02 01:19:00;;;;;;;57.53;31.20;;;4.70;99.90;;;;;;5060668;28;20458;-68
2022/12/02 01:21:27;;;;;;;62.17;32.77;;;4.60;99.90;;;;;;5057614;28;20467;-68
2022/12/02 01:23:54;;;;;;;58.07;33.60;;;4.60;99.90;;;;;;5058196;28;20487;-68
2022/12/02 01:26:23;;;;;;;51.33;31.70;;;4.60;99.90;;;;;;5058493;28;20483;-68
2022/12/02 01:28:50;;;;;;;52.90;32.60;;;4.50;99.90;;;;;;5049254;28;20483;-68
2022/12/02 01:31:17;;;;;;;52.00;32.43;;;4.50;99.90;;;;;;5061810;28;20545;-68
2022/12/02 01:33:45;;;;;;;57.80;32.53;;;4.50;99.90;;;;;;5062174;28;20456;-68
2022/12/02 01:36:12;;;;;;;56.50;31.90;;;4.40;99.90;;;;;;5060718;28;20478;-68
2022/12/02 01:38:39;;;;;;;52.60;31.13;;;4.30;99.90;;;;;;5056797;28;20460;-68
2022/12/02 01:41:07;;;;;;;55.17;32.10;;;4.40;99.90;;;;;;5060975;28;20460;-68
2022/12/02 01:43:35;;;;;;;55.00;29.70;;;4.40;99.90;;;;;;5059137;28;20833;-69
2022/12/02 01:46:02;;;;;;;57.10;31.87;;;4.30;99.90;;;;;;5057665;28;20458;-68
2022/12/02 01:48:30;;;;;;;58.83;32.20;;;4.30;99.90;;;;;;5056399;28;20502;-68
2022/12/02 01:50:58;;;;;;;55.67;30.63;;;4.30;99.90;;;;;;5057495;28;20562;-68
2022/12/02 01:53:25;;;;;;;60.67;31.90;;;4.30;99.90;;;;;;5058772;28;20466;-68
2022/12/02 01:55:53;;;;;;;57.60;32.30;;;4.20;99.90;;;;;;5062373;28;20484;-68
2022/12/02 01:58:24;;;;;;;55.93;32.60;;;4.30;99.90;;;;;;5063977;28;20459;-68
2022/12/02 02:00:54;;;;;;;57.93;31.73;;;4.40;99.90;;;;;;5055971;28;20464;-68
2022/12/02 02:03:21;;;;;;;50.80;31.67;;;4.30;99.90;;;;;;5055816;28;20490;-69
2022/12/02 02:05:48;;;;;;;58.17;32.20;;;4.30;99.90;;;;;;5055539;28;21001;-68
2022/12/02 02:08:16;;;;;;;55.50;30.50;;;4.40;99.90;;;;;;5055118;28;20480;-68
2022/12/02 02:10:44;;;;;;;53.10;30.87;;;4.40;99.90;;;;;;5059339;28;20542;-68
2022/12/02 02:13:15;;;;;;;65.43;33.37;;;4.20;99.90;;;;;;5060062;28;20477;-68
2022/12/02 02:15:44;;;;;;;65.67;32.40;;;4.30;99.90;;;;;;5055490;28;20456;-68
2022/12/02 02:18:12;;;;;;;56.83;31.57;;;4.20;99.90;;;;;;5060180;28;20463;-68
2022/12/02 02:20:40;;;;;;;59.60;31.80;;;4.20;99.90;;;;;;5060002;28;20624;-68
2022/12/02 02:23:17;;;;;;;56.13;32.10;;;4.30;99.90;;;;;;5063242;28;20512;-68
2022/12/02 02:25:45;;;;;;;58.23;32.50;;;4.30;99.90;;;;;;5057185;28;20474;-69
2022/12/02 02:28:12;;;;;;;69.30;33.70;;;4.20;99.90;;;;;;5061170;28;20459;-68
2022/12/02 02:30:40;;;;;;;71.20;33.37;;;4.30;99.90;;;;;;5068155;28;20459;-68
2022/12/02 02:33:09;;;;;;;60.93;36.00;;;4.30;99.90;;;;;;5060728;28;20466;-68
2022/12/02 02:35:39;;;;;;;63.00;33.37;;;4.30;99.90;;;;;;5063779;28;20473;-68
2022/12/02 02:38:08;;;;;;;66.23;33.90;;;4.30;99.90;;;;;;5061393;28;20505;-68
2022/12/02 02:40:37;;;;;;;64.73;32.47;;;4.50;99.90;;;;;;5062628;28;20876;-68
2022/12/02 02:43:04;;;;;;;64.23;34.80;;;4.40;99.90;;;;;;5062434;28;20844;-68
2022/12/02 02:45:33;;;;;;;62.23;33.07;;;4.50;99.90;;;;;;5059046;28;20463;-68
2022/12/02 02:48:02;;;;;;;60.60;33.40;;;4.50;99.90;;;;;;5062124;28;20479;-68
2022/12/02 02:50:30;;;;;;;72.47;34.77;;;4.50;99.90;;;;;;5060336;28;20550;-68
2022/12/02 02:53:00;;;;;;;61.67;34.23;;;4.40;99.90;;;;;;5062095;28;20470;-68
2022/12/02 02:55:28;;;;;;;70.27;36.03;;;4.50;99.90;;;;;;5061932;28;20471;-68
2022/12/02 02:58:06;;;;;;;70.93;37.27;;;4.50;99.90;;;;;;5060347;28;20539;-70
2022/12/02 03:00:34;;;;;;;79.53;40.10;;;4.40;99.90;;;;;;5061153;28;20489;-68
2022/12/02 03:03:01;;;;;;;94.03;40.47;;;4.40;99.90;;;;;;5059063;28;20508;-68
2022/12/02 03:05:28;;;;;;;99.37;44.07;;;4.10;99.90;;;;;;5064127;28;20977;-68
2022/12/02 03:07:55;;;;;;;103.00;42.27;;;4.10;99.90;;;;;;5059480;28;20485;-68
2022/12/02 03:10:22;;;;;;;85.27;42.80;;;4.30;99.90;;;;;;5062972;28;20462;-68
2022/12/02 03:12:52;;;;;;;89.23;43.20;;;4.40;99.90;;;;;;5062121;28;20471;-68
2022/12/02 03:15:21;;;;;;;89.10;43.23;;;4.30;99.90;;;;;;5059369;28;20980;-68
2022/12/02 03:17:48;;;;;;;78.20;40.50;;;4.10;99.90;;;;;;5055433;28;20487;-68
2022/12/02 03:20:15;;;;;;;83.57;38.20;;;4.10;99.90;;;;;;5060929;28;20476;-68
2022/12/02 03:22:42;;;;;;;81.73;40.57;;;4.10;99.90;;;;;;5054537;28;20539;-68
2022/12/02 03:25:10;;;;;;;75.37;38.30;;;4.00;99.90;;;;;;5057544;28;20490;-68
2022/12/02 03:27:37;;;;;;;82.63;39.37;;;4.20;99.90;;;;;;5059757;28;20462;-68
2022/12/02 03:30:05;;;;;;;83.33;42.90;;;4.10;99.90;;;;;;5060937;28;20466;-68
2022/12/02 03:32:35;;;;;;;87.43;38.37;;;4.10;99.90;;;;;;5060043;28;20455;-68
2022/12/02 03:35:02;;;;;;;86.90;40.70;;;4.10;99.90;;;;;;5060330;28;20474;-68
2022/12/02 03:37:29;;;;;;;91.07;41.17;;;4.10;99.90;;;;;;5064328;28;20494;-69
2022/12/02 03:39:56;;;;;;;76.40;39.13;;;4.10;99.90;;;;;;5055482;28;20471;-68
2022/12/02 03:42:23;;;;;;;84.77;39.40;;;4.10;99.90;;;;;;5059129;28;20497;-68
2022/12/02 03:44:51;;;;;;;73.20;37.80;;;4.10;99.90;;;;;;5058181;28;20470;-68
2022/12/02 03:47:18;;;;;;;81.10;37.07;;;4.20;99.90;;;;;;5056839;28;21004;-69
2022/12/02 03:49:47;;;;;;;77.13;38.50;;;4.10;99.90;;;;;;5062674;28;20479;-68
2022/12/02 03:52:14;;;;;;;77.93;37.47;;;4.20;99.90;;;;;;5059588;28;20464;-69
2022/12/02 03:54:40;;;;;;;71.53;38.00;;;4.10;99.90;;;;;;5055855;28;20539;-68
2022/12/02 03:57:08;;;;;;;61.60;33.50;;;4.30;99.90;;;;;;5063589;28;20482;-68
2022/12/02 03:59:35;;;;;;;72.10;35.30;;;4.20;99.90;;;;;;5062422;28;20459;-68
2022/12/02 04:02:02;;;;;;;59.07;35.13;;;4.20;99.90;;;;;;5058831;28;20484;-68
2022/12/02 04:04:30;;;;;;;63.00;34.90;;;4.30;99.90;;;;;;5063482;28;20586;-68
2022/12/02 04:06:58;;;;;;;69.03;36.83;;;4.20;99.90;;;;;;5045023;28;20824;-69
2022/12/02 04:09:25;;;;;;;64.27;32.63;;;4.10;99.90;;;;;;5039355;28;20460;-68
2022/12/02 04:11:52;;;;;;;63.37;36.00;;;4.20;99.90;;;;;;5041492;28;20464;-68
2022/12/02 04:14:20;;;;;;;57.40;32.30;;;4.30;99.90;;;;;;5041026;28;20469;-68
2022/12/02 04:16:47;;;;;;;58.90;34.20;;;4.20;99.90;;;;;;5052388;28;20484;-68
2022/12/02 04:19:14;;;;;;;61.93;34.33;;;4.20;99.90;;;;;;5047153;28;20467;-68
2022/12/02 04:21:41;;;;;;;60.90;33.17;;;4.20;99.90;;;;;;5038553;28;20465;-68
2022/12/02 04:24:10;;;;;;;61.70;35.20;;;4.20;99.90;;;;;;5041750;28;20558;-68
2022/12/02 04:26:37;;;;;;;60.07;35.17;;;4.20;99.90;;;;;;5037592;28;20470;-68
2022/12/02 04:29:05;;;;;;;52.53;31.73;;;4.30;99.90;;;;;;5045075;28;20511;-68
2022/12/02 04:31:31;;;;;;;66.67;35.20;;;4.10;99.90;;;;;;5043247;28;20479;-69
2022/12/02 04:33:59;;;;;;;56.10;32.33;;;4.10;99.90;;;;;;5055091;28;20454;-69
2022/12/02 04:36:27;;;;;;;64.13;36.77;;;4.00;99.90;;;;;;5035243;28;20544;-68
2022/12/02 04:38:53;;;;;;;63.43;33.30;;;4.10;99.90;;;;;;5036103;28;20463;-69
2022/12/02 04:41:22;;;;;;;61.63;35.00;;;4.10;99.90;;;;;;5051283;28;20463;-69
2022/12/02 04:43:50;;;;;;;58.60;34.03;;;4.20;99.90;;;;;;5040193;28;20467;-68
2022/12/02 04:46:16;;;;;;;64.40;35.70;;;4.20;99.90;;;;;;5040461;28;20852;-69
2022/12/02 04:48:43;;;;;;;58.93;34.50;;;4.20;99.90;;;;;;5045154;28;20487;-68
2022/12/02 04:51:10;;;;;;;57.67;35.07;;;4.20;99.90;;;;;;5047992;28;20558;-68
2022/12/02 04:53:37;;;;;;;65.10;35.67;;;4.10;99.90;;;;;;5047726;28;20460;-68
2022/12/02 04:56:04;;;;;;;56.47;33.07;;;4.10;99.90;;;;;;5040619;28;20980;-69
2022/12/02 04:58:33;;;;;;;69.97;34.97;;;4.00;99.90;;;;;;5042635;28;20500;-68
2022/12/02 05:01:00;;;;;;;64.67;35.83;;;3.80;99.90;;;;;;5041166;28;20846;-69
2022/12/02 05:03:27;;;;;;;73.20;38.33;;;3.80;99.90;;;;;;5037979;28;20478;-69
2022/12/02 05:05:54;;;;;;;59.23;34.93;;;3.70;99.90;;;;;;5045022;28;20491;-68
2022/12/02 05:08:21;;;;;;;69.33;36.10;;;3.80;99.90;;;;;;5055272;28;20509;-69
2022/12/02 05:10:48;;;;;;;75.50;36.50;;;3.80;99.90;;;;;;5062611;28;20463;-68
2022/12/02 05:13:15;;;;;;;66.60;35.57;;;3.80;99.90;;;;;;5055577;28;20461;-69
2022/12/02 05:15:43;;;;;;;67.83;34.37;;;4.00;99.90;;;;;;5058069;28;20478;-69
2022/12/02 05:18:11;;;;;;;65.30;35.20;;;4.00;99.90;;;;;;5059619;28;20494;-68
2022/12/02 05:20:38;;;;;;;61.30;33.67;;;4.00;99.90;;;;;;5061501;28;20463;-69
2022/12/02 05:23:05;;;;;;;65.90;35.50;;;3.80;99.90;;;;;;5055845;28;20451;-69
2022/12/02 05:25:32;;;;;;;68.03;36.80;;;3.80;99.90;;;;;;5054378;28;20981;-68
2022/12/02 05:27:59;;;;;;;73.33;36.70;;;3.90;99.90;;;;;;5061526;28;20460;-68
2022/12/02 05:30:26;;;;;;;62.50;35.93;;;3.80;99.90;;;;;;5057985;28;20968;-69
2022/12/02 05:32:54;;;;;;;66.07;35.53;;;3.80;99.90;;;;;;5061043;28;20467;-68
2022/12/02 05:35:22;;;;;;;80.17;38.37;;;3.70;99.90;;;;;;5057012;28;20459;-68
2022/12/02 05:37:48;;;;;;;77.57;37.93;;;3.80;99.90;;;;;;5059519;28;20940;-69
2022/12/02 05:40:16;;;;;;;74.73;35.57;;;3.70;99.90;;;;;;5060048;28;20473;-68
2022/12/02 05:42:43;;;;;;;67.10;35.67;;;3.80;99.90;;;;;;5059470;28;20498;-69
2022/12/02 05:45:16;;;;;;;71.03;36.43;;;3.80;99.90;;;;;;5054870;28;20498;-68
2022/12/02 05:47:49;;;;;;;74.90;37.70;;;3.80;99.90;;;;;;5056744;28;20470;-67
2022/12/02 05:50:19;;;;;;;62.10;34.47;;;3.80;99.90;;;;;;5054173;28;20477;-69
2022/12/02 05:52:48;;;;;;;75.20;36.30;;;3.80;99.90;;;;;;5057146;28;20888;-68
2022/12/02 05:55:16;;;;;;;68.73;34.27;;;3.90;99.90;;;;;;5057802;28;20482;-69
2022/12/02 05:57:44;;;;;;;59.77;34.57;;;3.90;99.90;;;;;;5063439;28;20498;-69
2022/12/02 06:00:17;;;;;;;64.27;35.07;;;3.80;99.90;;;;;;5055782;28;20490;-68
2022/12/02 06:02:47;;;;;;;70.87;34.67;;;3.70;99.90;;;;;;5047660;28;20558;-69
2022/12/02 06:05:26;;;;;;;71.20;37.17;;;3.90;99.90;;;;;;5058236;28;20811;-69
2022/12/02 06:07:55;;;;;;;61.50;33.00;;;3.90;99.90;;;;;;5054926;28;20494;-69
2022/12/02 06:10:25;;;;;;;57.83;33.17;;;3.90;99.90;;;;;;5061564;28;20500;-69
2022/12/02 06:12:54;;;;;;;55.03;33.37;;;3.80;99.90;;;;;;5063500;28;20455;-69
2022/12/02 06:15:22;;;;;;;72.03;35.77;;;3.90;99.90;;;;;;5060130;28;20466;-69
2022/12/02 06:17:49;;;;;;;56.67;32.97;;;3.90;99.90;;;;;;5059618;28;21001;-69
2022/12/02 06:20:21;;;;;;;63.37;36.10;;;3.90;99.90;;;;;;5055879;28;20464;-69
2022/12/02 06:22:50;;;;;;;67.00;36.70;;;4.00;99.90;;;;;;5051576;28;20459;-69
2022/12/02 06:25:24;;;;;;;69.17;36.70;;;4.00;99.90;;;;;;5059306;28;20471;-69
2022/12/02 06:27:55;;;;;;;64.20;32.67;;;4.00;99.90;;;;;;5059569;28;20558;-69
2022/12/02 06:30:22;;;;;;;61.73;36.20;;;3.90;99.90;;;;;;5052377;28;20491;-69
2022/12/02 06:32:55;;;;;;;70.93;35.87;;;3.90;99.90;;;;;;5061127;28;20481;-69
2022/12/02 06:35:24;;;;;;;60.23;33.93;;;3.90;99.90;;;;;;5054712;28;20514;-69
2022/12/02 06:37:56;;;;;;;73.57;33.80;;;3.90;99.90;;;;;;5058961;28;20552;-69
2022/12/02 06:40:25;;;;;;;74.03;36.37;;;4.00;99.90;;;;;;5060233;28;20470;-69
2022/12/02 06:42:52;;;;;;;58.17;31.67;;;3.90;99.90;;;;;;5053436;28;20454;-69
2022/12/02 06:45:26;;;;;;;69.00;34.10;;;3.90;99.90;;;;;;5053413;28;21044;-69
2022/12/02 06:48:17;;;;;;;53.57;32.00;;;4.00;99.90;;;;;;5061542;28;20510;-71
2022/12/02 06:50:47;;;;;;;63.60;30.93;;;4.00;99.90;;;;;;5054396;28;20827;-69
2022/12/02 06:53:33;;;;;;;61.87;33.00;;;4.00;99.90;;;;;;5057543;28;20455;-69
2022/12/02 06:56:04;;;;;;;47.77;30.00;;;4.10;99.90;;;;;;5054669;28;20868;-69
2022/12/02 06:58:37;;;;;;;59.70;32.50;;;3.90;99.90;;;;;;5050434;28;20498;-69
2022/12/02 07:01:21;;;;;;;64.67;32.00;;;4.00;99.90;;;;;;5059245;28;20462;-69
2022/12/02 07:03:57;;;;;;;61.23;35.93;;;4.00;99.90;;;;;;5057813;28;20594;-69
2022/12/02 07:06:25;;;;;;;62.07;33.17;;;4.10;99.90;;;;;;5061795;28;20493;-69
2022/12/02 07:08:56;;;;;;;70.00;32.23;;;4.00;99.90;;;;;;5064409;28;20458;-69
2022/12/02 07:11:48;;;;;;;65.33;33.13;;;4.10;99.90;;;;;;5064716;28;20466;-69
2022/12/02 07:14:20;;;;;;;64.77;32.07;;;4.00;99.90;;;;;;5061400;28;20469;-69
2022/12/02 07:16:48;;;;;;;60.20;31.23;;;4.00;99.90;;;;;;5056170;28;20481;-69
2022/12/02 07:22:00;;;;;;;57.30;31.70;;;3.90;99.90;;;;;;5058588;28;20535;-69
2022/12/02 07:24:28;;;;;;;66.10;32.10;;;3.90;99.90;;;;;;5058076;28;20554;-69
2022/12/02 07:26:56;;;;;;;77.23;41.33;;;3.80;99.90;;;;;;5063481;28;20462;-69
2022/12/02 07:29:29;;;;;;;57.63;32.47;;;3.80;99.90;;;;;;5062630;28;20474;-69
2022/12/02 07:31:56;;;;;;;62.30;31.97;;;4.00;99.90;;;;;;5059830;28;20562;-69
2022/12/02 07:34:23;;;;;;;61.83;33.70;;;3.90;99.90;;;;;;5066306;28;20455;-70
2022/12/02 07:36:50;;;;;;;58.00;30.90;;;3.80;99.90;;;;;;5067536;28;20462;-69
2022/12/02 07:39:17;;;;;;;66.07;31.60;;;3.90;99.90;;;;;;5058975;28;20486;-69
2022/12/02 07:41:45;;;;;;;60.47;32.20;;;4.00;99.90;;;;;;5058455;28;20528;-69
2022/12/02 07:44:12;;;;;;;65.97;32.40;;;4.00;99.90;;;;;;5054904;28;20466;-69
2022/12/02 07:46:39;;;;;;;64.50;30.90;;;4.10;99.90;;;;;;5052056;28;20478;-69
2022/12/02 07:49:05;;;;;;;63.50;31.87;;;4.00;99.90;;;;;;5057004;28;20716;-69
2022/12/02 07:51:32;;;;;;;61.73;30.87;;;4.20;99.90;;;;;;5050222;28;20471;-69
2022/12/02 07:53:59;;;;;;;59.83;31.00;;;4.20;99.90;;;;;;5061616;28;20464;-69
2022/12/02 07:56:26;;;;;;;63.17;33.83;;;4.20;99.90;;;;;;5059704;28;20467;-69
2022/12/02 07:58:54;;;;;;;56.60;31.17;;;4.30;99.90;;;;;;5063082;28;20495;-70
2022/12/02 08:01:21;;;;;;;64.00;33.33;;;4.20;99.90;;;;;;5061537;28;20491;-69
2022/12/02 08:03:48;;;;;;;62.20;31.53;;;4.30;99.90;;;;;;5056920;28;20513;-69
2022/12/02 08:06:15;;;;;;;61.73;31.37;;;4.30;99.90;;;;;;5039076;28;20488;-71
2022/12/02 08:08:41;;;;;;;65.07;32.30;;;4.30;99.90;;;;;;5045410;28;20456;-69
2022/12/02 08:11:08;;;;;;;57.20;31.47;;;4.30;99.90;;;;;;5038999;28;20469;-69
2022/12/02 08:13:35;;;;;;;58.50;31.00;;;4.30;99.90;;;;;;5044948;28;20452;-70
2022/12/02 08:16:03;;;;;;;60.97;29.33;;;4.30;99.90;;;;;;5041777;28;20471;-69
2022/12/02 08:18:30;;;;;;;43.30;26.50;;;4.30;99.90;;;;;;5031641;28;20501;-69
2022/12/02 08:20:57;;;;;;;55.23;31.73;;;4.20;99.90;;;;;;5036410;28;20452;-69
2022/12/02 08:23:24;;;;;;;56.23;27.67;;;4.00;99.90;;;;;;5040980;28;20814;-69
2022/12/02 08:25:51;;;;;;;52.93;27.40;;;3.80;99.90;;;;;;5036976;28;20456;-69
2022/12/02 08:28:18;;;;;;;60.17;29.63;;;3.70;99.90;;;;;;5043234;28;20456;-69
2022/12/02 08:30:45;;;;;;;51.03;28.13;;;3.80;99.90;;;;;;5032949;28;20467;-69
2022/12/02 08:33:13;;;;;;;53.37;28.17;;;3.80;99.90;;;;;;5035849;28;20473;-69
2022/12/02 08:35:40;;;;;;;68.77;29.80;;;3.90;99.90;;;;;;5036954;28;21020;-69
2022/12/02 08:38:07;;;;;;;58.00;29.90;;;3.90;99.90;;;;;;5038884;28;20483;-69
2022/12/02 08:40:34;;;;;;;59.97;30.37;;;3.90;99.90;;;;;;5040634;28;21303;-69
2022/12/02 08:43:02;;;;;;;56.57;29.73;;;3.90;99.90;;;;;;5042201;28;20583;-69
2022/12/02 08:45:28;;;;;;;61.33;31.00;;;3.90;99.90;;;;;;5035133;28;20500;-70
2022/12/02 08:47:55;;;;;;;59.83;32.57;;;3.90;99.90;;;;;;5029917;28;20464;-69
2022/12/02 08:50:24;;;;;;;63.20;32.30;;;3.90;99.90;;;;;;5037821;28;20557;-69
2022/12/02 08:52:50;;;;;;;57.97;29.37;;;3.80;99.90;;;;;;5040923;28;20461;-69
2022/12/02 08:55:17;;;;;;;75.50;34.93;;;3.80;99.90;;;;;;5038649;28;20460;-69
2022/12/02 08:57:44;;;;;;;61.57;32.03;;;3.70;99.90;;;;;;5039341;28;20464;-68
2022/12/02 09:00:12;;;;;;;71.17;32.23;;;3.70;99.90;;;;;;5038285;28;20472;-69
2022/12/02 09:02:39;;;;;;;92.40;37.67;;;3.70;99.90;;;;;;5035611;28;20530;-67
2022/12/02 09:05:07;;;;;;;88.30;40.87;;;3.70;99.90;;;;;;5048653;28;20540;-67
2022/12/02 09:07:35;;;;;;;89.37;40.90;;;3.70;99.90;;;;;;5060890;28;20836;-70
2022/12/02 09:10:02;;;;;;;78.93;38.60;;;3.80;99.90;;;;;;5054410;28;20456;-67
2022/12/02 09:12:29;;;;;;;89.90;42.10;;;3.90;99.90;;;;;;5059361;28;20478;-68
2022/12/02 09:14:56;;;;;;;80.57;40.30;;;3.70;99.90;;;;;;5061350;28;20477;-68
2022/12/02 09:17:23;;;;;;;76.33;40.37;;;3.90;99.90;;;;;;5055591;28;20859;-68
2022/12/02 09:19:49;;;;;;;79.80;40.90;;;3.90;99.90;;;;;;5052743;28;20516;-68
2022/12/02 09:22:16;;;;;;;96.07;44.00;;;3.80;99.90;;;;;;5059926;28;20470;-68
2022/12/02 09:24:44;;;;;;;86.73;44.13;;;3.80;99.90;;;;;;5053250;28;20464;-67
2022/12/02 09:27:12;;;;;;;79.27;42.57;;;3.70;99.90;;;;;;5061002;28;20459;-68
2022/12/02 09:29:40;;;;;;;85.20;42.60;;;3.80;99.90;;;;;;5053185;28;20536;-68
2022/12/02 09:32:07;;;;;;;106.07;45.73;;;3.80;99.90;;;;;;5061807;28;20463;-68
2022/12/02 09:34:33;;;;;;;96.47;44.07;;;3.80;99.90;;;;;;5054641;28;20980;-68
2022/12/02 09:37:00;;;;;;;98.17;47.03;;;3.60;99.90;;;;;;5053293;28;20456;-68
2022/12/02 09:39:27;;;;;;;103.17;43.17;;;3.70;99.90;;;;;;5057801;28;20583;-68
2022/12/02 09:41:55;;;;;;;107.80;44.33;;;3.80;99.90;;;;;;5053482;28;20463;-68
2022/12/02 09:44:22;;;;;;;83.30;44.60;;;3.80;99.90;;;;;;5054120;28;20477;-68
2022/12/02 09:46:49;;;;;;;100.73;46.83;;;3.70;99.90;;;;;;5059381;28;20470;-68
2022/12/02 09:49:16;;;;;;;84.57;43.50;;;3.70;99.90;;;;;;5057656;28;20483;-68
2022/12/02 09:51:43;;;;;;;108.60;50.57;;;3.70;99.90;;;;;;5057040;28;20467;-68
2022/12/02 09:54:12;;;;;;;95.33;43.17;;;3.70;99.90;;;;;;5056080;28;21021;-68
2022/12/02 09:56:40;;;;;;;97.80;45.40;;;3.70;99.90;;;;;;5058252;28;20526;-68
2022/12/02 09:59:14;;;;;;;90.37;44.50;;;3.80;99.90;;;;;;5055357;28;20544;-69
2022/12/02 10:01:42;;;;;;;94.20;43.80;;;3.90;99.90;;;;;;5055414;28;20955;-68
2022/12/02 10:04:10;;;;;;;85.93;42.20;;;3.70;99.90;;;;;;5052090;28;20463;-68
2022/12/02 10:06:37;;;;;;;99.73;44.40;;;3.70;99.90;;;;;;5054416;28;20494;-67
2022/12/02 10:09:05;;;;;;;95.73;44.50;;;3.70;99.90;;;;;;5055068;28;20464;-68
2022/12/02 10:11:33;;;;;;;96.77;45.90;;;3.80;99.90;;;;;;5058682;28;20550;-68
2022/12/02 10:14:01;;;;;;;99.80;47.67;;;3.80;99.90;;;;;;5058186;28;20467;-69
2022/12/02 10:16:29;;;;;;;84.07;41.57;;;3.80;99.90;;;;;;5053846;28;20467;-68
2022/12/02 10:19:00;;;;;;;98.00;43.90;;;3.60;99.90;;;;;;5056906;28;21003;-68
2022/12/02 10:21:27;;;;;;;89.13;43.03;;;3.80;99.90;;;;;;5056205;28;20471;-68
2022/12/02 10:23:56;;;;;;;91.17;42.60;;;3.70;99.90;;;;;;5058860;28;20467;-68
2022/12/02 10:26:23;;;;;;;86.33;39.20;;;3.80;99.90;;;;;;5064934;28;20459;-68
2022/12/02 10:29:02;;;;;;;77.73;38.43;;;3.90;99.90;;;;;;5057001;28;20908;-68
2022/12/02 10:31:30;;;;;;;82.43;40.97;;;3.70;99.90;;;;;;5048458;28;20493;-68
2022/12/02 10:33:59;;;;;;;92.60;38.53;;;3.70;99.90;;;;;;5053037;28;20464;-68
2022/12/02 10:36:31;;;;;;;79.87;38.90;;;3.70;99.90;;;;;;5055355;28;20627;-68
2022/12/02 10:39:18;;;;;;;76.67;36.60;;;3.80;99.90;;;;;;5057313;28;20482;-68
2022/12/02 10:41:45;;;;;;;77.00;36.70;;;3.90;99.90;;;;;;5055548;28;21052;-68
2022/12/02 10:44:15;;;;;;;84.20;35.17;;;3.80;99.90;;;;;;5066049;28;20835;-68
2022/12/02 10:46:44;;;;;;;76.73;31.20;;;3.70;99.90;;;;;;5062812;28;20474;-68
2022/12/02 10:49:26;;;;;;;66.47;33.13;;;3.80;99.90;;;;;;5058389;28;20923;-68
2022/12/02 10:51:54;;;;;;;86.97;33.63;;;3.80;99.90;;;;;;5056952;28;20471;-68
2022/12/02 10:54:24;;;;;;;64.17;32.60;;;3.80;99.90;;;;;;5062572;28;20459;-69
2022/12/02 10:56:52;;;;;;;54.07;28.27;;;4.00;99.90;;;;;;5059566;28;20853;-69
2022/12/02 10:59:19;;;;;;;66.03;33.63;;;4.00;99.90;;;;;;5062155;28;20583;-68
2022/12/02 11:01:48;;;;;;;72.13;33.30;;;3.80;99.90;;;;;;5061109;28;20485;-69
2022/12/02 11:04:15;;;;;;;62.23;34.47;;;3.90;99.90;;;;;;5056906;28;20466;-68
2022/12/02 11:06:43;;;;;;;65.53;31.60;;;4.00;99.90;;;;;;5041055;28;20809;-68
2022/12/02 11:09:16;;;;;;;60.00;31.50;;;3.90;99.90;;;;;;5043756;28;20475;-68
2022/12/02 11:11:42;;;;;;;62.50;31.57;;;4.00;99.90;;;;;;5040524;28;20818;-68
2022/12/02 11:14:12;;;;;;;63.87;29.90;;;3.90;99.90;;;;;;5046610;28;20464;-69
2022/12/02 11:17:03;;;;;;;61.13;32.43;;;4.00;99.90;;;;;;5040204;28;20459;-68
2022/12/02 11:19:45;;;;;;;71.20;34.00;;;4.00;99.90;;;;;;5044220;28;20478;-69
2022/12/02 11:22:47;;;;;;;62.33;31.77;;;4.00;99.90;;;;;;5041252;28;20541;-68
2022/12/02 11:25:58;;;;;;;60.17;33.53;;;4.00;99.90;;;;;;5035666;28;20456;-69
2022/12/02 11:29:04;;;;;;;47.73;27.70;;;3.90;99.90;;;;;;5004659;28;20843;-69
2022/12/02 11:31:31;;;;;;;55.93;29.00;;;4.00;99.90;;;;;;5036501;28;20464;-69
2022/12/02 11:34:05;;;;;;;61.37;32.10;;;4.00;99.90;;;;;;5041463;28;20598;-68
2022/12/02 11:36:33;;;;;;;63.27;30.20;;;4.00;99.90;;;;;;5039927;28;20475;-69
2022/12/02 11:39:03;;;;;;;63.17;32.80;;;4.00;99.90;;;;;;5040146;28;20616;-69
2022/12/02 11:41:52;;;;;;;61.47;33.50;;;4.00;99.90;;;;;;5042868;28;20465;-70
2022/12/02 11:44:25;;;;;;;53.97;32.07;;;4.00;99.90;;;;;;5041687;28;21010;-69
2022/12/02 11:46:54;;;;;;;59.70;34.17;;;4.00;99.90;;;;;;5045865;28;20463;-69
2022/12/02 11:49:31;;;;;;;56.80;31.30;;;4.00;99.90;;;;;;5039002;28;20567;-69
2022/12/02 11:52:19;;;;;;;62.80;33.47;;;4.00;99.90;;;;;;5041167;28;20768;-69
2022/12/02 11:54:50;;;;;;;57.37;33.67;;;4.00;99.90;;;;;;5035906;28;20470;-69
2022/12/02 11:57:23;;;;;;;62.77;32.53;;;3.90;99.90;;;;;;5036021;28;21192;-69
2022/12/02 11:59:52;;;;;;;48.63;29.33;;;3.90;99.90;;;;;;5037711;28;20488;-69
2022/12/02 12:02:21;;;;;;;58.27;32.93;;;3.90;99.90;;;;;;5044745;28;20566;-69
2022/12/02 12:04:59;;;;;;;50.50;29.10;;;4.00;99.90;;;;;;5043789;28;20492;-69
2022/12/02 12:07:41;;;;;;;46.47;29.40;;;4.00;99.90;;;;;;5038946;28;20467;-69
2022/12/02 12:10:23;;;;;;;44.53;28.30;;;4.10;99.90;;;;;;5040801;28;20468;-69
2022/12/02 12:13:10;;;;;;;58.13;35.30;;;3.90;99.90;;;;;;5038606;28;20460;-69
2022/12/02 12:15:58;;;;;;;59.30;32.87;;;3.90;99.90;;;;;;5031437;28;20465;-69
2022/12/02 12:18:42;;;;;;;51.17;30.43;;;4.00;99.90;;;;;;5031451;28;20488;-69
2022/12/02 12:21:10;;;;;;;57.27;32.73;;;4.10;99.90;;;;;;5041312;28;20464;-69
2022/12/02 12:23:39;;;;;;;64.17;36.53;;;4.10;99.90;;;;;;5040353;28;20475;-69
2022/12/02 12:26:07;;;;;;;49.93;30.07;;;4.10;99.90;;;;;;5036917;28;20460;-69
2022/12/02 12:28:36;;;;;;;45.57;30.70;;;4.10;99.90;;;;;;5034663;28;20461;-69
2022/12/02 12:31:06;;;;;;;53.87;34.50;;;4.10;99.90;;;;;;5034401;28;20844;-69
2022/12/02 12:33:33;;;;;;;50.97;34.77;;;4.10;99.90;;;;;;5050911;28;20537;-70
2022/12/02 12:36:00;;;;;;;61.53;36.93;;;4.20;99.90;;;;;;5050342;28;20474;-69
2022/12/02 12:38:29;;;;;;;53.30;35.03;;;4.30;99.90;;;;;;5036910;28;20887;-70
2022/12/02 12:40:56;;;;;;;66.17;36.10;;;4.40;99.90;;;;;;5037652;28;20516;-69
2022/12/02 12:43:24;;;;;;;63.10;37.40;;;4.40;99.90;;;;;;5034814;28;20476;-69
2022/12/02 12:45:51;;;;;;;47.37;33.57;;;4.40;99.90;;;;;;5037034;28;20692;-69
2022/12/02 12:48:19;;;;;;;58.93;36.23;;;4.20;99.90;;;;;;5036546;28;20486;-69
2022/12/02 12:50:46;;;;;;;50.23;32.27;;;4.10;99.90;;;;;;5030777;28;20461;-69
2022/12/02 12:53:13;;;;;;;59.50;37.23;;;4.10;99.90;;;;;;5039729;28;20495;-69